Williston, SC (29853)

11:39 AM EST on December 21, 2014 (GMT -0500)
Loose Rock | Change Station
CLOSE
Current Station
Personal Weather Station
Location: Williston, SC
Elevation: 309 ft
Nearby Weather Stations

Elev 309 ft 33.47 °N, 81.40 °W | Updated 7 seconds ago

Overcast
Overcast
51.5 °F
Feels Like 51.5 °F
N
8.0
Wind Variable Wind from ENE
Gusts 13.0 mph

Today
High -- | Low -- °F
--% Chance of Precip.
Yesterday
High -- | Low -- °F
Precip. -- in
7:25 AM 5:22 PM
Waning Crescent, 0% visible
Pressure 30.25 in
Visibility 10.0 miles
Clouds Scattered Clouds 6500 ft
Dew Point 44 °F
Humidity 77%
Rainfall 0.00 in
Snow Depth Not available.
UV 1.7 out of 12
Pollen .40 out of 12
Air Quality Not available.
Flu Activity Not available.
METAR KAIK 211635Z AUTO 03008KT 10SM SCT065 10/05 A3025 RMK AO2 PNO

More Conditions Fewer Conditions

Pressure 30.25 in
Visibility 10.0 miles
Clouds Scattered Clouds 6500 ft
Dew Point 44 °F
Humidity 77%
Rainfall 0.00 in
Snow Depth Not available.
UV 1.7 out of 12
Pollen .40 out of 12
Air Quality Not available.
Flu Activity Not available.
METAR KAIK 211635Z AUTO 03008KT 10SM SCT065 10/05 A3025 RMK AO2 PNO

More Conditions Fewer Conditions

10-Day Weather Forecast

Almanac

Astronomy

Dec. 21, 2014 Rise Set
Actual Time
Civil Twilight
Nautical Twilight
Astronomical Twilight
Moon
Length of Visible Light
Length of Day
Tomorrow will be .
, % of the Moon is Illuminated

Today's Extremes

State Highs State Lows

Community

WunderPhotos

Upload Photos

1,779,430 photos uploaded!

WunderBlogs® & News

Nearby

Air Quality

  Air Quality AQ Index Pollutant
Not available.

Snow Depth

Station Depth Elevation

Earthquake Activity

City Distance Mag. Time & Date
Minimum magnitude displayed is 2.5.

Coastal Water Temperatures

Place Temperature

Nearby Weather Stations